sensor_id;sensor_type;location;lat;lon;timestamp;pressure;altitude;pressure_sealevel;temperature;humidity
24302;BME280;12421;49.732;20.078;2023-06-24T00:16:26;96978.39;;;19.41;90.72
24302;BME280;12421;49.732;20.078;2023-06-24T00:26:47;96968.90;;;19.46;90.01
24302;BME280;12421;49.732;20.078;2023-06-24T00:37:32;96967.04;;;19.23;89.55
24302;BME280;12421;49.732;20.078;2023-06-24T00:48:06;96965.92;;;19.20;90.75
24302;BME280;12421;49.732;20.078;2023-06-24T00:58:23;96964.95;;;19.35;90.80
24302;BME280;12421;49.732;20.078;2023-06-24T01:09:02;96975.55;;;19.41;90.11
24302;BME280;12421;49.732;20.078;2023-06-24T01:40:26;96966.97;;;19.38;88.60
24302;BME280;12421;49.732;20.078;2023-06-24T01:50:32;96972.38;;;19.24;88.34
24302;BME280;12421;49.732;20.078;2023-06-24T02:00:44;96986.80;;;19.07;88.93
24302;BME280;12421;49.732;20.078;2023-06-24T02:10:49;96991.43;;;18.95;89.39
24302;BME280;12421;49.732;20.078;2023-06-24T02:20:54;96994.85;;;18.94;89.28
24302;BME280;12421;49.732;20.078;2023-06-24T02:31:00;96989.88;;;18.94;88.97
24302;BME280;12421;49.732;20.078;2023-06-24T02:41:04;96993.52;;;18.92;89.45
24302;BME280;12421;49.732;20.078;2023-06-24T02:51:09;96993.38;;;18.91;89.53
24302;BME280;12421;49.732;20.078;2023-06-24T03:01:14;97001.95;;;18.86;89.63
24302;BME280;12421;49.732;20.078;2023-06-24T03:11:23;96994.17;;;18.77;90.10
24302;BME280;12421;49.732;20.078;2023-06-24T03:21:26;96993.42;;;18.77;90.09
24302;BME280;12421;49.732;20.078;2023-06-24T03:31:40;96991.96;;;18.83;89.93
24302;BME280;12421;49.732;20.078;2023-06-24T03:41:50;96985.14;;;18.84;89.60
24302;BME280;12421;49.732;20.078;2023-06-24T03:52:19;96981.82;;;18.70;89.80
24302;BME280;12421;49.732;20.078;2023-06-24T04:02:22;96983.63;;;18.65;90.06
24302;BME280;12421;49.732;20.078;2023-06-24T04:12:27;96987.29;;;18.67;89.20
24302;BME280;12421;49.732;20.078;2023-06-24T04:22:31;97006.05;;;18.56;88.78
24302;BME280;12421;49.732;20.078;2023-06-24T04:32:35;97015.82;;;18.57;89.05
24302;BME280;12421;49.732;20.078;2023-06-24T04:42:39;97017.20;;;18.58;89.39
24302;BME280;12421;49.732;20.078;2023-06-24T04:52:42;97026.27;;;18.57;89.73
24302;BME280;12421;49.732;20.078;2023-06-24T05:02:46;97033.41;;;18.57;88.88
24302;BME280;12421;49.732;20.078;2023-06-24T05:12:49;97038.38;;;18.57;88.78
24302;BME280;12421;49.732;20.078;2023-06-24T05:22:54;97031.36;;;18.59;88.86
24302;BME280;12421;49.732;20.078;2023-06-24T05:32:57;97031.10;;;18.74;89.32
24302;BME280;12421;49.732;20.078;2023-06-24T05:53:46;97043.52;;;18.75;88.19
24302;BME280;12421;49.732;20.078;2023-06-24T06:03:50;97055.04;;;18.80;88.79
24302;BME280;12421;49.732;20.078;2023-06-24T06:13:54;97067.70;;;18.79;88.52
24302;BME280;12421;49.732;20.078;2023-06-24T06:23:57;97072.36;;;18.70;88.53
24302;BME280;12421;49.732;20.078;2023-06-24T06:34:01;97082.10;;;18.71;87.83
24302;BME280;12421;49.732;20.078;2023-06-24T06:44:05;97090.27;;;18.67;88.05
24302;BME280;12421;49.732;20.078;2023-06-24T06:54:09;97101.05;;;18.69;87.87
24302;BME280;12421;49.732;20.078;2023-06-24T07:04:12;97116.60;;;18.80;88.46
24302;BME280;12421;49.732;20.078;2023-06-24T07:14:17;97120.53;;;18.84;88.08
24302;BME280;12421;49.732;20.078;2023-06-24T07:24:20;97131.89;;;18.89;88.14
24302;BME280;12421;49.732;20.078;2023-06-24T07:34:24;97138.66;;;18.97;88.47
24302;BME280;12421;49.732;20.078;2023-06-24T07:44:28;97146.39;;;19.04;88.42
24302;BME280;12421;49.732;20.078;2023-06-24T07:54:32;97154.27;;;19.07;88.39
24302;BME280;12421;49.732;20.078;2023-06-24T08:04:36;97163.95;;;19.18;88.79
24302;BME280;12421;49.732;20.078;2023-06-24T08:14:40;97164.56;;;19.35;88.34
24302;BME280;12421;49.732;20.078;2023-06-24T08:24:44;97178.75;;;19.41;88.77
24302;BME280;12421;49.732;20.078;2023-06-24T08:34:48;97189.55;;;19.50;87.86
24302;BME280;12421;49.732;20.078;2023-06-24T08:44:52;97193.22;;;19.60;87.02
24302;BME280;12421;49.732;20.078;2023-06-24T08:54:58;97191.39;;;19.69;86.52
24302;BME280;12421;49.732;20.078;2023-06-24T09:05:03;97192.33;;;19.93;86.65
24302;BME280;12421;49.732;20.078;2023-06-24T09:15:14;97195.52;;;20.02;86.06
24302;BME280;12421;49.732;20.078;2023-06-24T09:25:18;97205.05;;;20.28;85.65
24302;BME280;12421;49.732;20.078;2023-06-24T09:35:25;97214.73;;;20.54;85.52
24302;BME280;12421;49.732;20.078;2023-06-24T09:45:29;97215.11;;;20.69;84.32
24302;BME280;12421;49.732;20.078;2023-06-24T09:55:36;97221.58;;;20.80;83.03
24302;BME280;12421;49.732;20.078;2023-06-24T10:05:42;97234.08;;;20.49;82.97
24302;BME280;12421;49.732;20.078;2023-06-24T10:15:46;97240.05;;;19.98;81.50
24302;BME280;12421;49.732;20.078;2023-06-24T10:25:50;97256.89;;;19.71;82.66
24302;BME280;12421;49.732;20.078;2023-06-24T10:35:53;97268.59;;;19.28;82.23
24302;BME280;12421;49.732;20.078;2023-06-24T10:45:57;97269.19;;;19.18;83.59
24302;BME280;12421;49.732;20.078;2023-06-24T10:56:03;97270.03;;;19.23;82.24
24302;BME280;12421;49.732;20.078;2023-06-24T11:06:10;97270.41;;;19.27;82.17
24302;BME280;12421;49.732;20.078;2023-06-24T11:16:13;97282.18;;;19.31;82.58
24302;BME280;12421;49.732;20.078;2023-06-24T11:26:17;97295.80;;;19.34;83.09
24302;BME280;12421;49.732;20.078;2023-06-24T11:36:25;97290.10;;;19.48;82.97
24302;BME280;12421;49.732;20.078;2023-06-24T11:46:30;97275.56;;;19.59;80.67
24302;BME280;12421;49.732;20.078;2023-06-24T11:56:42;97284.61;;;19.94;80.22
24302;BME280;12421;49.732;20.078;2023-06-24T12:06:46;97289.95;;;19.89;78.68
24302;BME280;12421;49.732;20.078;2023-06-24T12:17:15;97288.77;;;19.92;78.32
24302;BME280;12421;49.732;20.078;2023-06-24T12:27:20;97285.70;;;20.02;77.88
24302;BME280;12421;49.732;20.078;2023-06-24T12:37:24;97289.56;;;20.48;78.25
24302;BME280;12421;49.732;20.078;2023-06-24T12:47:28;97291.38;;;20.52;78.44
24302;BME280;12421;49.732;20.078;2023-06-24T12:57:34;97298.67;;;20.40;78.38
24302;BME280;12421;49.732;20.078;2023-06-24T13:07:38;97303.14;;;20.24;78.04
24302;BME280;12421;49.732;20.078;2023-06-24T13:17:41;97312.12;;;20.10;78.83
24302;BME280;12421;49.732;20.078;2023-06-24T13:27:45;97314.31;;;19.91;78.74
24302;BME280;12421;49.732;20.078;2023-06-24T13:37:50;97312.05;;;19.81;78.81
24302;BME280;12421;49.732;20.078;2023-06-24T13:47:55;97316.89;;;19.76;79.47
24302;BME280;12421;49.732;20.078;2023-06-24T13:58:00;97319.09;;;19.71;79.10
24302;BME280;12421;49.732;20.078;2023-06-24T14:08:03;97319.96;;;19.58;79.30
24302;BME280;12421;49.732;20.078;2023-06-24T14:18:09;97318.00;;;19.41;80.02
24302;BME280;12421;49.732;20.078;2023-06-24T14:28:13;97316.34;;;19.18;80.27
24302;BME280;12421;49.732;20.078;2023-06-24T14:38:17;97319.46;;;19.20;81.43
24302;BME280;12421;49.732;20.078;2023-06-24T14:48:21;97325.92;;;19.28;81.36
24302;BME280;12421;49.732;20.078;2023-06-24T14:58:25;97321.55;;;19.26;81.86
24302;BME280;12421;49.732;20.078;2023-06-24T15:08:28;97324.56;;;19.32;81.83
24302;BME280;12421;49.732;20.078;2023-06-24T15:18:32;97326.31;;;19.37;82.16
24302;BME280;12421;49.732;20.078;2023-06-24T15:28:37;97321.98;;;19.39;82.37
24302;BME280;12421;49.732;20.078;2023-06-24T15:39:07;97317.16;;;19.48;82.66
24302;BME280;12421;49.732;20.078;2023-06-24T15:49:36;97318.16;;;19.45;81.38
24302;BME280;12421;49.732;20.078;2023-06-24T16:00:04;97324.23;;;19.21;81.79
24302;BME280;12421;49.732;20.078;2023-06-24T16:10:09;97327.30;;;19.02;81.61
24302;BME280;12421;49.732;20.078;2023-06-24T16:20:13;97329.29;;;18.82;82.19
24302;BME280;12421;49.732;20.078;2023-06-24T16:30:19;97329.02;;;18.70;82.41
24302;BME280;12421;49.732;20.078;2023-06-24T16:40:24;97328.59;;;18.53;82.93
24302;BME280;12421;49.732;20.078;2023-06-24T16:50:30;97337.21;;;18.30;82.84
24302;BME280;12421;49.732;20.078;2023-06-24T17:00:37;97340.64;;;18.02;83.21
24302;BME280;12421;49.732;20.078;2023-06-24T17:10:42;97347.25;;;17.86;83.32
24302;BME280;12421;49.732;20.078;2023-06-24T17:20:45;97344.14;;;17.61;82.96
24302;BME280;12421;49.732;20.078;2023-06-24T17:31:14;97343.35;;;17.47;83.24
24302;BME280;12421;49.732;20.078;2023-06-24T17:41:18;97339.11;;;17.40;84.26
24302;BME280;12421;49.732;20.078;2023-06-24T17:51:29;97336.04;;;17.25;84.23
24302;BME280;12421;49.732;20.078;2023-06-24T18:01:33;97335.08;;;17.10;84.37
24302;BME280;12421;49.732;20.078;2023-06-24T18:11:37;97328.07;;;17.01;85.65
24302;BME280;12421;49.732;20.078;2023-06-24T18:21:41;97329.77;;;16.97;86.35
24302;BME280;12421;49.732;20.078;2023-06-24T18:31:45;97330.79;;;17.05;87.07
24302;BME280;12421;49.732;20.078;2023-06-24T18:41:49;97341.67;;;16.91;86.27
24302;BME280;12421;49.732;20.078;2023-06-24T18:51:53;97354.69;;;16.83;86.75
24302;BME280;12421;49.732;20.078;2023-06-24T19:01:57;97344.23;;;16.77;87.29
24302;BME280;12421;49.732;20.078;2023-06-24T19:12:01;97350.84;;;16.87;87.84
24302;BME280;12421;49.732;20.078;2023-06-24T19:22:06;97350.80;;;16.88;87.05
24302;BME280;12421;49.732;20.078;2023-06-24T19:32:11;97359.67;;;16.82;87.01
24302;BME280;12421;49.732;20.078;2023-06-24T19:42:15;97353.90;;;16.97;88.02
24302;BME280;12421;49.732;20.078;2023-06-24T19:52:19;97344.10;;;17.11;87.46
24302;BME280;12421;49.732;20.078;2023-06-24T20:02:23;97341.67;;;17.15;87.13
24302;BME280;12421;49.732;20.078;2023-06-24T20:12:26;97331.23;;;17.14;87.30
24302;BME280;12421;49.732;20.078;2023-06-24T20:22:29;97328.02;;;17.14;87.08
24302;BME280;12421;49.732;20.078;2023-06-24T20:32:34;97321.20;;;17.11;87.25
24302;BME280;12421;49.732;20.078;2023-06-24T20:42:37;97330.67;;;17.14;87.10
24302;BME280;12421;49.732;20.078;2023-06-24T20:52:41;97332.54;;;17.06;87.49
24302;BME280;12421;49.732;20.078;2023-06-24T21:02:45;97333.10;;;17.10;87.44
24302;BME280;12421;49.732;20.078;2023-06-24T21:12:48;97333.95;;;17.17;86.99
24302;BME280;12421;49.732;20.078;2023-06-24T21:22:55;97338.90;;;17.12;86.98
24302;BME280;12421;49.732;20.078;2023-06-24T21:32:58;97327.74;;;17.06;86.95
24302;BME280;12421;49.732;20.078;2023-06-24T21:43:02;97330.31;;;16.97;87.17
24302;BME280;12421;49.732;20.078;2023-06-24T21:53:06;97329.22;;;16.92;87.30
24302;BME280;12421;49.732;20.078;2023-06-24T22:03:10;97325.91;;;16.84;87.40
24302;BME280;12421;49.732;20.078;2023-06-24T22:13:14;97326.31;;;16.83;87.21
24302;BME280;12421;49.732;20.078;2023-06-24T22:23:17;97322.14;;;16.80;87.31
24302;BME280;12421;49.732;20.078;2023-06-24T22:33:20;97323.73;;;16.80;87.38
24302;BME280;12421;49.732;20.078;2023-06-24T22:43:24;97314.35;;;16.80;87.45
24302;BME280;12421;49.732;20.078;2023-06-24T22:53:28;97308.45;;;16.87;87.25
24302;BME280;12421;49.732;20.078;2023-06-24T23:03:31;97306.71;;;16.86;86.65
24302;BME280;12421;49.732;20.078;2023-06-24T23:13:35;97301.61;;;16.84;86.39
24302;BME280;12421;49.732;20.078;2023-06-24T23:23:39;97290.14;;;16.71;85.85
24302;BME280;12421;49.732;20.078;2023-06-24T23:33:46;97284.14;;;16.63;86.03
24302;BME280;12421;49.732;20.078;2023-06-24T23:43:53;97285.05;;;16.55;86.03
24302;BME280;12421;49.732;20.078;2023-06-24T23:54:01;97282.11;;;16.47;86.06
